Atherton, Indiana
Current Conditions -  °F | °C
As of 5:53 PM on Thursday 18 Dec 2014 (Local Time) from KHUF Reporting Station
Overcast Overcast  
Wind Chill: 25°   Ceiling: 11000
Heat Index: 30°   Visibility: 10mi
Dew Point: 22°   Wind: 5mph
Humidity: 72%   Direction: 30°NNE
Pressure: 30.24"   Gusts: NA
Location:  39.6386°N, 87.3045°W
Report Text: KHUF 182253Z 03004KT 10SM SCT022 OVC110 M01/M06 A3024 RMK AO2 SLP248 T10111056
Loading
Personal Weather Stations






























Interactive Weather Map New forecast layout! Learn more

10-Day Weather Forecast

Advertisements
Track Severe Weather on mobile